createdAt,value
2022-12-06T00:00:49.893Z,13.77
2022-12-06T00:06:04.124Z,15.70
2022-12-06T00:11:13.116Z,14.63
2022-12-06T00:16:20.024Z,13.90
2022-12-06T00:21:30.933Z,15.20
2022-12-06T00:26:39.302Z,15.48
2022-12-06T00:31:45.706Z,16.58
2022-12-06T00:36:53.367Z,15.45
2022-12-06T00:41:59.559Z,15.20
2022-12-06T00:47:06.241Z,17.83
2022-12-06T00:52:14.198Z,15.82
2022-12-06T00:57:20.635Z,15.68
2022-12-06T01:02:26.907Z,15.45
2022-12-06T01:07:34.685Z,16.05
2022-12-06T01:12:41.445Z,14.65
2022-12-06T01:17:47.947Z,15.38
2022-12-06T01:22:55.613Z,15.77
2022-12-06T01:28:01.846Z,15.30
2022-12-06T01:33:08.011Z,15.50
2022-12-06T01:38:15.830Z,16.25
2022-12-06T01:43:37.317Z,17.77
2022-12-06T01:48:44.655Z,16.10
2022-12-06T01:53:55.357Z,15.73
2022-12-06T01:59:02.202Z,14.77
2022-12-06T02:04:09.331Z,15.10
2022-12-06T02:09:18.987Z,16.10
2022-12-06T02:14:29.480Z,15.95
2022-12-06T02:20:05.206Z,15.30
2022-12-06T02:26:04.790Z,14.50
2022-12-06T02:31:18.476Z,15.15
2022-12-06T02:36:33.565Z,15.57
2022-12-06T02:41:46.210Z,14.68
2022-12-06T02:46:56.219Z,13.98
2022-12-06T02:52:03.044Z,14.27
2022-12-06T02:57:09.524Z,14.75
2022-12-06T03:02:17.377Z,14.55
2022-12-06T03:07:43.944Z,13.50
2022-12-06T03:13:03.147Z,15.93
2022-12-06T03:18:20.072Z,14.88
2022-12-06T03:23:32.714Z,13.68
2022-12-06T03:28:40.858Z,13.90
2022-12-06T03:33:53.248Z,15.73
2022-12-06T03:39:04.135Z,15.48
2022-12-06T03:44:12.320Z,15.75
2022-12-06T03:49:23.830Z,14.63
2022-12-06T03:54:30.070Z,17.00
2022-12-06T03:59:36.513Z,16.35
2022-12-06T04:04:44.674Z,16.70
2022-12-06T04:09:56.661Z,15.60
2022-12-06T04:15:03.271Z,14.70
2022-12-06T04:20:12.065Z,14.77
2022-12-06T04:25:18.182Z,14.43
2022-12-06T04:30:41.382Z,14.52
2022-12-06T04:36:06.337Z,14.82
2022-12-06T04:41:33.165Z,15.73
2022-12-06T04:46:39.355Z,14.63
2022-12-06T04:51:47.230Z,14.25
2022-12-06T04:56:53.312Z,14.90
2022-12-06T05:01:59.586Z,13.93
2022-12-06T05:07:07.841Z,13.45
2022-12-06T05:12:14.710Z,14.95
2022-12-06T05:17:20.977Z,14.68
2022-12-06T05:22:28.645Z,14.55
2022-12-06T05:27:36.225Z,14.65
2022-12-06T05:32:42.915Z,14.82
2022-12-06T05:37:50.940Z,15.68
2022-12-06T05:42:57.237Z,15.57
2022-12-06T05:48:03.719Z,14.25
2022-12-06T05:53:12.124Z,14.75
2022-12-06T05:58:19.671Z,11.93
2022-12-06T06:03:26.208Z,14.05
2022-12-06T06:08:34.248Z,14.65
2022-12-06T06:13:40.657Z,12.93
2022-12-06T06:18:47.085Z,14.52
2022-12-06T06:23:57.722Z,14.90
2022-12-06T06:29:04.184Z,15.93
2022-12-06T06:34:10.635Z,15.50
2022-12-06T06:39:18.711Z,17.65
2022-12-06T06:44:25.061Z,19.23
2022-12-06T06:49:31.265Z,17.20
2022-12-06T06:54:39.018Z,16.08
2022-12-06T06:59:45.740Z,14.88
2022-12-06T07:04:52.352Z,14.82
2022-12-06T07:10:00.393Z,15.05
2022-12-06T07:15:08.337Z,17.55
2022-12-06T07:20:15.176Z,20.63
2022-12-06T07:25:22.906Z,18.88
2022-12-06T07:30:29.409Z,15.93
2022-12-06T07:36:10.172Z,18.38
2022-12-06T07:41:29.658Z,16.70
2022-12-06T07:46:36.040Z,15.88
2022-12-06T07:51:42.333Z,15.35
2022-12-06T07:56:50.048Z,15.27
2022-12-06T08:01:57.358Z,14.00
2022-12-06T08:07:03.636Z,16.05
2022-12-06T08:12:12.348Z,14.80
2022-12-06T08:17:18.908Z,15.68
2022-12-06T08:22:25.630Z,14.82
2022-12-06T08:27:33.669Z,14.27
2022-12-06T08:32:40.283Z,12.40
2022-12-06T08:37:46.765Z,13.55
2022-12-06T08:42:55.755Z,13.70
2022-12-06T08:48:02.316Z,13.85
2022-12-06T08:53:08.787Z,17.10
2022-12-06T08:58:16.616Z,14.73
2022-12-06T09:03:23.925Z,13.68
2022-12-06T09:08:30.193Z,14.95
2022-12-06T09:13:39.866Z,13.88
2022-12-06T09:18:47.121Z,12.35
2022-12-06T09:23:56.386Z,11.65
2022-12-06T09:29:04.042Z,12.00
2022-12-06T09:34:11.607Z,12.05
2022-12-06T09:39:22.036Z,11.88
2022-12-06T09:45:10.391Z,10.73
2022-12-06T09:50:28.289Z,11.43
2022-12-06T09:55:53.325Z,11.68
2022-12-06T10:01:12.943Z,10.88
2022-12-06T10:06:23.100Z,11.90
2022-12-06T10:11:54.955Z,14.20
2022-12-06T10:17:13.972Z,12.27
2022-12-06T10:22:32.450Z,11.25
2022-12-06T10:27:41.853Z,10.47
2022-12-06T10:32:57.345Z,10.75
2022-12-06T10:38:15.784Z,10.13
2022-12-06T10:43:30.884Z,12.82
2022-12-06T10:48:46.622Z,15.25
2022-12-06T10:54:01.951Z,11.50
2022-12-06T10:59:26.485Z,11.65
2022-12-06T11:04:38.489Z,10.82
2022-12-06T11:09:47.748Z,12.38
2022-12-06T11:15:00.926Z,9.68
2022-12-06T11:20:23.615Z,9.82
2022-12-06T11:25:36.683Z,10.43
2022-12-06T11:30:43.157Z,9.90
2022-12-06T11:35:51.286Z,9.45
2022-12-06T11:40:58.154Z,11.53
2022-12-06T11:46:07.385Z,11.02
2022-12-06T11:51:21.530Z,12.13
2022-12-06T11:56:31.972Z,14.98
2022-12-06T12:01:47.698Z,11.55
2022-12-06T12:07:01.931Z,11.13
2022-12-06T12:12:18.840Z,12.10
2022-12-06T12:17:32.026Z,11.60
2022-12-06T12:22:43.115Z,11.73
2022-12-06T12:27:52.057Z,12.68
2022-12-06T12:33:21.001Z,12.25
2022-12-06T12:38:40.178Z,12.05
2022-12-06T12:44:13.758Z,12.90
2022-12-06T12:49:33.200Z,12.55
2022-12-06T12:54:41.612Z,14.45
2022-12-06T12:59:48.056Z,14.37
2022-12-06T13:05:24.827Z,14.18
2022-12-06T13:10:35.379Z,17.38
2022-12-06T13:15:47.672Z,15.07
2022-12-06T13:20:57.482Z,16.17
2022-12-06T13:26:20.650Z,17.88
2022-12-06T13:31:33.589Z,17.48
2022-12-06T13:36:40.184Z,18.15
2022-12-06T13:42:18.054Z,18.15
2022-12-06T13:47:51.953Z,20.15
2022-12-06T13:53:04.870Z,17.42
2022-12-06T13:58:53.896Z,19.65
2022-12-06T14:09:12.915Z,16.45
2022-12-06T14:14:24.792Z,17.92
2022-12-06T14:19:41.936Z,19.27
2022-12-06T14:25:02.818Z,18.17
2022-12-06T14:30:25.607Z,21.33
2022-12-06T14:35:36.477Z,21.00
2022-12-06T14:41:03.458Z,22.73
2022-12-06T14:46:16.224Z,22.80
2022-12-06T14:51:27.192Z,19.80
2022-12-06T14:56:37.293Z,19.13
2022-12-06T15:01:54.710Z,20.48
2022-12-06T15:07:01.619Z,18.40
2022-12-06T15:12:42.314Z,21.00
2022-12-06T15:17:51.553Z,20.42
2022-12-06T15:22:58.182Z,21.00
2022-12-06T15:28:04.677Z,20.20
2022-12-06T15:33:18.445Z,21.58
2022-12-06T15:38:24.966Z,25.83
2022-12-06T15:43:34.408Z,22.65
2022-12-06T15:48:43.304Z,22.02
2022-12-06T15:53:52.205Z,24.98
2022-12-06T15:58:58.983Z,28.75
2022-12-06T16:04:07.395Z,26.55
2022-12-06T16:09:15.558Z,22.73
2022-12-06T16:14:23.873Z,24.43
2022-12-06T16:19:45.792Z,25.67
2022-12-06T16:24:54.156Z,23.00
2022-12-06T16:30:02.467Z,25.17
2022-12-06T16:35:13.649Z,26.45
2022-12-06T16:40:23.971Z,24.95
2022-12-06T16:45:31.937Z,25.60
2022-12-06T16:50:40.765Z,21.67
2022-12-06T16:55:48.186Z,17.52
2022-12-06T17:00:55.694Z,17.88
2022-12-06T17:06:08.703Z,14.52
2022-12-06T17:11:39.774Z,15.30
2022-12-06T17:16:48.839Z,14.05
2022-12-06T17:22:02.756Z,14.73
2022-12-06T17:27:14.303Z,14.25
2022-12-06T17:32:22.952Z,13.98
2022-12-06T17:37:34.824Z,12.10
2022-12-06T17:43:00.008Z,14.23
2022-12-06T17:48:09.096Z,24.55
2022-12-06T17:53:20.006Z,19.13
2022-12-06T17:58:28.683Z,17.80
2022-12-06T18:03:36.113Z,16.45
2022-12-06T18:08:45.791Z,11.00
2022-12-06T18:13:56.296Z,14.80
2022-12-06T18:19:08.767Z,13.60
2022-12-06T18:24:22.629Z,12.90
2022-12-06T18:29:33.143Z,13.05
2022-12-06T18:34:42.065Z,12.02
2022-12-06T18:39:54.273Z,14.27
2022-12-06T18:45:05.412Z,15.68
2022-12-06T18:50:16.015Z,14.02
2022-12-06T18:55:26.113Z,12.90
2022-12-06T19:00:36.137Z,14.88
2022-12-06T19:06:06.455Z,15.77
2022-12-06T19:11:31.564Z,13.82
2022-12-06T19:16:42.798Z,14.27
2022-12-06T19:21:53.434Z,13.00
2022-12-06T19:27:04.348Z,13.82
2022-12-06T19:32:25.043Z,15.07
2022-12-06T19:37:35.178Z,13.38
2022-12-06T19:43:03.493Z,13.77
2022-12-06T19:48:15.336Z,14.68
2022-12-06T19:53:26.794Z,12.95
2022-12-06T19:58:39.382Z,14.48
2022-12-06T20:03:48.420Z,12.60
2022-12-06T20:09:02.278Z,14.23
2022-12-06T20:14:18.732Z,12.82
2022-12-06T20:19:29.392Z,12.77
2022-12-06T20:24:39.252Z,13.15
2022-12-06T20:29:51.272Z,13.35
2022-12-06T20:35:00.866Z,14.48
2022-12-06T20:40:16.140Z,14.23
2022-12-06T20:45:29.927Z,16.05
2022-12-06T20:50:45.852Z,14.88
2022-12-06T20:55:54.610Z,14.68
2022-12-06T21:01:06.323Z,14.00
2022-12-06T21:06:14.385Z,14.35
2022-12-06T21:11:24.031Z,12.80
2022-12-06T21:16:38.580Z,12.60
2022-12-06T21:21:50.681Z,14.43
2022-12-06T21:26:57.880Z,13.10
2022-12-06T21:32:05.755Z,14.32
2022-12-06T21:37:12.212Z,14.95
2022-12-06T21:42:21.511Z,14.13
2022-12-06T21:47:29.403Z,18.83
2022-12-06T21:52:35.944Z,21.95
2022-12-06T21:57:42.553Z,18.83
2022-12-06T22:02:54.803Z,16.33
2022-12-06T22:08:01.384Z,19.92
2022-12-06T22:13:08.148Z,24.25
2022-12-06T22:18:15.944Z,26.88
2022-12-06T22:23:22.415Z,24.88
2022-12-06T22:28:29.614Z,24.15
2022-12-06T22:33:37.757Z,25.92
2022-12-06T22:38:44.626Z,26.73
2022-12-06T22:43:54.128Z,27.05
2022-12-06T22:49:03.618Z,28.05
2022-12-06T22:54:15.948Z,25.50
2022-12-06T22:59:22.653Z,22.92
2022-12-06T23:04:30.579Z,18.58
2022-12-06T23:09:37.176Z,20.35
2022-12-06T23:14:43.789Z,20.95
2022-12-06T23:19:51.478Z,15.65
2022-12-06T23:24:57.965Z,15.30
2022-12-06T23:30:04.785Z,17.05
2022-12-06T23:35:13.525Z,14.45
2022-12-06T23:40:20.162Z,12.15
2022-12-06T23:45:26.883Z,11.07
2022-12-06T23:50:34.918Z,10.75
2022-12-06T23:55:41.097Z,9.63
